Time;durP1;ratioP1;P1;durP2;ratioP2;P2;SDS_P1;SDS_P2;PMS_P1;PMS_P2;Temp;Humidity;BMP_temperature;BMP_pressure;BME280_temperature;BME280_humidity;BME280_pressure;Samples;Min_cycle;Max_cycle;Signal;HPM_P1;HPM_P2
2022/05/08 00:00:57;;;;;;;17.48;12.85;;;13.50;99.90;;;;;;5113470;28;20602;-68
2022/05/08 00:03:22;;;;;;;29.23;23.02;;;13.50;99.90;;;;;;5115164;28;20196;-68
2022/05/08 00:05:48;;;;;;;18.73;13.73;;;13.50;99.90;;;;;;5117462;28;20199;-69
2022/05/08 00:08:14;;;;;;;29.42;21.70;;;13.50;99.90;;;;;;5098398;28;20184;-68
2022/05/08 00:10:40;;;;;;;25.55;19.23;;;13.50;99.90;;;;;;5116940;28;20221;-69
2022/05/08 00:13:06;;;;;;;19.75;14.07;;;13.40;99.90;;;;;;5116910;28;20539;-67
2022/05/08 00:15:32;;;;;;;46.75;27.00;;;13.40;99.90;;;;;;5116692;28;20204;-68
2022/05/08 00:17:58;;;;;;;22.17;13.10;;;13.40;99.90;;;;;;5116620;28;20245;-68
2022/05/08 00:20:24;;;;;;;34.83;23.52;;;13.30;99.90;;;;;;5116724;28;20252;-68
2022/05/08 00:22:49;;;;;;;41.38;29.88;;;13.30;99.90;;;;;;5116661;28;20168;-68
2022/05/08 00:25:15;;;;;;;20.98;13.50;;;13.30;99.90;;;;;;5116459;28;20196;-68
2022/05/08 00:27:41;;;;;;;36.97;21.55;;;13.30;99.90;;;;;;5116499;28;20171;-68
2022/05/08 00:30:07;;;;;;;18.67;11.75;;;13.30;99.90;;;;;;5117132;28;20601;-68
2022/05/08 00:32:33;;;;;;;45.25;25.58;;;13.30;99.90;;;;;;5098001;28;20177;-69
2022/05/08 00:34:59;;;;;;;27.65;16.58;;;13.20;99.90;;;;;;5116693;28;20246;-68
2022/05/08 00:37:24;;;;;;;39.40;21.45;;;13.20;99.90;;;;;;5116200;28;20192;-68
2022/05/08 00:39:50;;;;;;;37.00;19.38;;;13.20;99.90;;;;;;5116419;28;20169;-68
2022/05/08 00:42:16;;;;;;;28.75;14.65;;;13.10;99.90;;;;;;5116322;28;20175;-68
2022/05/08 00:44:42;;;;;;;13.27;8.48;;;13.10;99.90;;;;;;5098081;28;20275;-68
2022/05/08 00:47:07;;;;;;;34.28;19.80;;;13.00;99.90;;;;;;5116205;28;20550;-68
2022/05/08 00:49:33;;;;;;;27.45;16.10;;;13.00;99.90;;;;;;5115879;28;20257;-68
2022/05/08 00:51:59;;;;;;;22.17;12.50;;;13.00;99.90;;;;;;5116123;28;20183;-68
2022/05/08 00:54:26;;;;;;;26.60;11.60;;;12.90;99.90;;;;;;5116318;28;20259;-68
2022/05/08 00:56:53;;;;;;;52.05;27.38;;;12.90;99.90;;;;;;5115975;28;20727;-68
2022/05/08 00:59:19;;;;;;;26.33;13.43;;;12.90;99.90;;;;;;5116523;28;20149;-68
2022/05/08 01:01:45;;;;;;;30.27;15.43;;;12.90;99.90;;;;;;5115978;28;20251;-68
2022/05/08 01:04:11;;;;;;;21.02;11.90;;;12.90;99.90;;;;;;5115797;28;20218;-68
2022/05/08 01:06:37;;;;;;;20.73;12.23;;;12.80;99.90;;;;;;5115913;28;20188;-68
2022/05/08 01:09:03;;;;;;;11.93;8.15;;;12.80;99.90;;;;;;5115858;28;20274;-68
2022/05/08 01:11:29;;;;;;;22.35;12.23;;;12.80;99.90;;;;;;5115807;28;20579;-68
2022/05/08 01:13:55;;;;;;;21.60;10.77;;;12.80;99.90;;;;;;5096951;28;20188;-68
2022/05/08 01:16:22;;;;;;;24.65;13.13;;;12.70;99.90;;;;;;5115200;28;20199;-68
2022/05/08 01:18:49;;;;;;;13.95;7.88;;;12.70;99.90;;;;;;5115715;28;20169;-68
2022/05/08 01:21:17;;;;;;;15.68;8.13;;;12.70;99.90;;;;;;5115629;28;20283;-68
2022/05/08 01:23:44;;;;;;;15.00;8.60;;;12.70;99.90;;;;;;5115715;28;20169;-68
2022/05/08 01:26:10;;;;;;;22.65;11.10;;;12.70;99.90;;;;;;5115460;28;20241;-68
2022/05/08 01:28:36;;;;;;;20.50;11.35;;;12.70;99.90;;;;;;5115441;28;20176;-68
2022/05/08 01:31:02;;;;;;;20.83;11.38;;;12.70;99.90;;;;;;5097184;28;20695;-67
2022/05/08 01:33:28;;;;;;;13.60;8.05;;;12.70;99.90;;;;;;5115180;28;20203;-68
2022/05/08 01:35:54;;;;;;;15.68;8.82;;;12.60;99.90;;;;;;5115281;28;20188;-68
2022/05/08 01:38:22;;;;;;;16.17;8.35;;;12.60;99.90;;;;;;5115114;28;20226;-68
2022/05/08 01:40:50;;;;;;;13.73;8.60;;;12.60;99.90;;;;;;5097197;28;20191;-68
2022/05/08 01:43:16;;;;;;;16.42;9.15;;;12.60;99.90;;;;;;5096972;28;20172;-68
2022/05/08 01:45:42;;;;;;;16.55;8.95;;;12.50;99.90;;;;;;5115332;28;20231;-68
2022/05/08 01:48:25;;;;;;;13.25;9.48;;;12.40;99.90;;;;;;5115277;28;20653;-68
2022/05/08 01:50:54;;;;;;;14.43;9.15;;;12.40;99.90;;;;;;5115362;28;20205;-69
2022/05/08 01:53:21;;;;;;;12.75;9.13;;;12.40;99.90;;;;;;5096699;28;20176;-68
2022/05/08 01:55:52;;;;;;;14.90;9.23;;;12.30;99.90;;;;;;5115121;28;20203;-68
2022/05/08 01:58:18;;;;;;;15.45;8.88;;;12.30;99.90;;;;;;5096562;28;20197;-68
2022/05/08 02:00:44;;;;;;;17.02;10.07;;;12.20;99.90;;;;;;5114948;28;20192;-68
2022/05/08 02:03:11;;;;;;;13.43;8.87;;;12.10;99.90;;;;;;5114600;28;20644;-68
2022/05/08 02:05:40;;;;;;;16.02;9.85;;;12.10;99.90;;;;;;5114846;28;20185;-68
2022/05/08 02:08:05;;;;;;;12.88;8.30;;;12.10;99.90;;;;;;5114905;28;20187;-68
2022/05/08 02:10:31;;;;;;;17.70;10.00;;;12.10;99.90;;;;;;5096529;28;20172;-69
2022/05/08 02:12:57;;;;;;;16.85;8.30;;;12.10;99.90;;;;;;5114965;28;20193;-68
2022/05/08 02:15:24;;;;;;;14.93;8.87;;;12.10;99.90;;;;;;5114915;28;20200;-68
2022/05/08 02:17:50;;;;;;;13.10;9.20;;;12.00;99.90;;;;;;5096571;28;20207;-69
2022/05/08 02:20:16;;;;;;;15.15;9.10;;;11.90;99.90;;;;;;5114901;28;20173;-68
2022/05/08 02:22:42;;;;;;;12.20;8.23;;;11.90;99.90;;;;;;5096448;28;20199;-67
2022/05/08 02:25:08;;;;;;;15.15;9.00;;;11.90;99.90;;;;;;5114730;28;20257;-68
2022/05/08 02:27:49;;;;;;;16.45;10.23;;;11.80;99.90;;;;;;5114758;28;20173;-68
2022/05/08 02:30:16;;;;;;;15.13;9.70;;;11.80;99.90;;;;;;5114963;28;20528;-68
2022/05/08 02:32:42;;;;;;;15.50;8.98;;;11.70;99.90;;;;;;5115047;28;20173;-68
2022/05/08 02:35:09;;;;;;;16.47;9.73;;;11.70;99.90;;;;;;5096229;28;20564;-68
2022/05/08 02:37:36;;;;;;;15.63;9.68;;;11.60;99.90;;;;;;5096687;28;20300;-68
2022/05/08 02:40:02;;;;;;;17.00;10.10;;;11.60;99.90;;;;;;5114556;28;20198;-68
2022/05/08 02:42:27;;;;;;;15.50;10.67;;;11.50;99.90;;;;;;5114316;28;20202;-68
2022/05/08 02:44:53;;;;;;;18.30;10.70;;;11.50;99.90;;;;;;5114383;28;20245;-68
2022/05/08 02:47:19;;;;;;;20.23;10.63;;;11.40;99.90;;;;;;5114634;28;20187;-68
2022/05/08 02:49:45;;;;;;;21.10;10.73;;;11.40;99.90;;;;;;5114628;28;20179;-68
2022/05/08 02:52:10;;;;;;;23.98;10.98;;;11.40;99.90;;;;;;5114325;28;20636;-68
2022/05/08 02:54:36;;;;;;;21.53;11.20;;;11.30;99.90;;;;;;5114588;28;20521;-68
2022/05/08 02:59:46;;;;;;;19.20;10.73;;;11.30;99.90;;;;;;5115082;28;20564;-68
2022/05/08 03:02:12;;;;;;;19.27;10.77;;;11.20;99.90;;;;;;5114728;28;20156;-68
2022/05/08 03:04:37;;;;;;;21.87;10.67;;;11.20;99.90;;;;;;5114413;28;20229;-68
2022/05/08 03:07:03;;;;;;;18.37;10.50;;;11.10;99.90;;;;;;5114280;28;20229;-68
2022/05/08 03:09:29;;;;;;;14.57;9.97;;;11.10;99.90;;;;;;5114069;28;20188;-68
2022/05/08 03:11:55;;;;;;;21.03;9.57;;;11.10;99.90;;;;;;5114067;28;20168;-68
2022/05/08 03:14:20;;;;;;;17.40;9.50;;;11.10;99.90;;;;;;5114032;28;20184;-68
2022/05/08 03:16:47;;;;;;;14.93;10.03;;;11.10;99.90;;;;;;5114000;28;20262;-68
2022/05/08 03:19:13;;;;;;;21.67;10.23;;;11.10;99.90;;;;;;5095616;28;20196;-68
2022/05/08 03:21:41;;;;;;;19.13;10.13;;;11.00;99.90;;;;;;5114288;28;20672;-68
2022/05/08 03:24:08;;;;;;;22.93;8.87;;;11.00;99.90;;;;;;5096059;28;20168;-68
2022/05/08 03:26:34;;;;;;;21.13;9.10;;;10.90;99.90;;;;;;5114781;28;20192;-69
2022/05/08 03:28:59;;;;;;;17.53;8.80;;;10.90;99.90;;;;;;5114626;28;20172;-68
2022/05/08 03:31:25;;;;;;;14.57;8.03;;;10.90;99.90;;;;;;5115339;28;20169;-68
2022/05/08 03:33:51;;;;;;;17.73;8.03;;;10.80;99.90;;;;;;5114208;28;20180;-68
2022/05/08 03:36:17;;;;;;;23.55;8.57;;;10.80;99.90;;;;;;5114544;28;20570;-68
2022/05/08 03:38:44;;;;;;;15.30;7.90;;;10.80;99.90;;;;;;5118999;28;20583;-70
2022/05/08 03:41:15;;;;;;;20.13;7.53;;;10.80;99.90;;;;;;5101440;28;20212;-70
2022/05/08 03:43:43;;;;;;;16.17;7.20;;;10.70;99.90;;;;;;5101261;28;20202;-70
2022/05/08 03:46:08;;;;;;;14.00;7.57;;;10.70;99.90;;;;;;5119198;28;20264;-70
2022/05/08 03:48:35;;;;;;;13.87;6.93;;;10.70;99.90;;;;;;5100533;28;20199;-69
2022/05/08 03:51:01;;;;;;;19.77;7.30;;;10.70;99.90;;;;;;5118829;28;20168;-70
2022/05/08 03:53:27;;;;;;;15.97;7.13;;;10.60;99.90;;;;;;5100280;28;20176;-71
2022/05/08 03:55:53;;;;;;;11.80;6.23;;;10.60;99.90;;;;;;5100003;28;20661;-70
2022/05/08 03:58:18;;;;;;;15.77;6.63;;;10.60;99.90;;;;;;5118139;28;20196;-70
2022/05/08 04:00:44;;;;;;;16.30;6.70;;;10.60;99.90;;;;;;5118803;28;20168;-71
2022/05/08 04:03:10;;;;;;;16.67;6.80;;;10.60;99.90;;;;;;5118097;28;20172;-70
2022/05/08 04:05:36;;;;;;;18.00;6.97;;;10.50;99.90;;;;;;5099687;28;20204;-70
2022/05/08 04:08:01;;;;;;;14.00;6.22;;;10.60;99.90;;;;;;5117592;28;20267;-67
2022/05/08 04:10:27;;;;;;;17.57;6.93;;;10.60;99.90;;;;;;5117158;28;20184;-67
2022/05/08 04:12:53;;;;;;;14.23;7.03;;;10.60;99.90;;;;;;5117175;28;20215;-67
2022/05/08 04:18:03;;;;;;;16.80;6.47;;;10.50;99.90;;;;;;5116997;28;20203;-67
2022/05/08 04:20:29;;;;;;;16.13;6.57;;;10.50;99.90;;;;;;5116719;28;20172;-67
2022/05/08 04:25:38;;;;;;;21.20;6.67;;;10.50;99.90;;;;;;5116795;28;20195;-67
2022/05/08 04:28:04;;;;;;;13.73;6.67;;;10.50;99.90;;;;;;5117093;28;20180;-67
2022/05/08 04:30:30;;;;;;;22.57;7.20;;;10.50;99.90;;;;;;5116870;28;20191;-66
2022/05/08 04:32:56;;;;;;;15.73;7.43;;;10.60;99.90;;;;;;5116765;28;20176;-67
2022/05/08 04:35:21;;;;;;;18.37;7.10;;;10.50;99.90;;;;;;5116052;28;20196;-67
2022/05/08 04:37:47;;;;;;;17.07;6.13;;;10.50;99.90;;;;;;5098131;28;20220;-67
2022/05/08 04:40:13;;;;;;;13.97;6.47;;;10.50;99.90;;;;;;5116505;28;20156;-67
2022/05/08 04:42:39;;;;;;;16.37;6.73;;;10.50;99.90;;;;;;5116397;28;20298;-66
2022/05/08 04:45:05;;;;;;;20.07;6.33;;;10.50;99.90;;;;;;5116218;28;20189;-67
2022/05/08 04:47:31;;;;;;;17.27;6.57;;;10.60;99.90;;;;;;5116781;28;20625;-67
2022/05/08 04:49:57;;;;;;;18.80;6.70;;;10.60;99.90;;;;;;5114851;28;20183;-67
2022/05/08 04:52:23;;;;;;;18.80;6.87;;;10.60;99.90;;;;;;5116059;28;20184;-67
2022/05/08 04:54:48;;;;;;;18.83;6.50;;;10.60;99.90;;;;;;5116059;28;20196;-67
2022/05/08 04:57:14;;;;;;;18.17;6.93;;;10.50;99.90;;;;;;5097688;28;20208;-67
2022/05/08 04:59:40;;;;;;;14.10;6.43;;;10.60;99.90;;;;;;5097794;28;20183;-67
2022/05/08 05:02:08;;;;;;;18.73;7.00;;;10.60;99.90;;;;;;5116288;28;20165;-67
2022/05/08 05:04:34;;;;;;;16.73;6.13;;;10.60;99.90;;;;;;5115720;28;20657;-67
2022/05/08 05:07:00;;;;;;;17.90;6.60;;;10.60;99.90;;;;;;5115928;28;20196;-67
2022/05/08 05:09:26;;;;;;;18.60;5.97;;;10.50;99.90;;;;;;5115785;28;20546;-67
2022/05/08 05:11:52;;;;;;;14.97;7.07;;;10.60;99.90;;;;;;5116020;28;20168;-67
2022/05/08 05:14:17;;;;;;;16.70;6.20;;;10.60;99.90;;;;;;5115637;28;20604;-67
2022/05/08 05:16:43;;;;;;;23.70;6.50;;;10.60;99.90;;;;;;5097642;28;20295;-66
2022/05/08 05:19:09;;;;;;;21.40;6.43;;;10.50;99.90;;;;;;5115476;28;20189;-66
2022/05/08 05:21:34;;;;;;;18.60;6.57;;;10.50;99.90;;;;;;5115707;28;20283;-66
2022/05/08 05:24:01;;;;;;;19.23;6.53;;;10.50;99.90;;;;;;5115963;28;20167;-66
2022/05/08 05:26:27;;;;;;;22.20;6.70;;;10.50;99.90;;;;;;5115439;28;20562;-67
2022/05/08 05:28:52;;;;;;;19.13;6.57;;;10.50;99.90;;;;;;5115411;28;20251;-67
2022/05/08 05:31:18;;;;;;;19.30;7.33;;;10.60;99.90;;;;;;5115571;28;20196;-67
2022/05/08 05:33:46;;;;;;;23.60;8.70;;;10.60;99.90;;;;;;5115608;28;20173;-66
2022/05/08 05:36:12;;;;;;;16.57;6.47;;;10.60;99.90;;;;;;5115330;28;20184;-66
2022/05/08 05:38:39;;;;;;;15.33;6.47;;;10.60;99.90;;;;;;5097824;28;20212;-66
2022/05/08 05:41:05;;;;;;;17.83;6.77;;;10.60;99.90;;;;;;5115835;28;20164;-67
2022/05/08 05:43:32;;;;;;;19.13;6.23;;;10.70;99.90;;;;;;5116087;28;20644;-67
2022/05/08 05:48:42;;;;;;;18.07;6.50;;;10.70;99.90;;;;;;5115312;28;20206;-67
2022/05/08 05:51:08;;;;;;;17.30;7.07;;;10.70;99.90;;;;;;5096781;28;20589;-67
2022/05/08 05:53:35;;;;;;;18.83;5.97;;;10.80;99.90;;;;;;5115057;28;20176;-67
2022/05/08 05:56:01;;;;;;;18.67;6.20;;;10.80;99.90;;;;;;5096548;28;20649;-67
2022/05/08 05:58:27;;;;;;;18.60;6.27;;;10.90;99.90;;;;;;5114832;28;20192;-67
2022/05/08 06:00:52;;;;;;;16.87;6.33;;;10.90;99.90;;;;;;5096135;28;20250;-67
2022/05/08 06:03:18;;;;;;;20.13;6.43;;;11.00;99.90;;;;;;5115370;28;20165;-67
2022/05/08 06:05:44;;;;;;;23.00;7.43;;;11.00;99.90;;;;;;5096161;28;20195;-67
2022/05/08 06:08:10;;;;;;;17.57;6.20;;;11.00;99.90;;;;;;5096412;28;20274;-67
2022/05/08 06:10:36;;;;;;;15.73;6.33;;;11.00;99.90;;;;;;5115036;28;20180;-66
2022/05/08 06:13:02;;;;;;;23.00;6.67;;;11.00;99.90;;;;;;5114544;28;20191;-67
2022/05/08 06:15:27;;;;;;;19.67;5.97;;;11.10;99.90;;;;;;5114612;28;20211;-67
2022/05/08 06:17:53;;;;;;;16.73;6.47;;;11.10;99.90;;;;;;5096176;28;20592;-66
2022/05/08 06:20:19;;;;;;;18.50;6.70;;;11.10;99.90;;;;;;5114089;28;20165;-67
2022/05/08 06:22:45;;;;;;;18.60;6.83;;;11.00;99.90;;;;;;5114901;28;20164;-67
2022/05/08 06:25:12;;;;;;;22.33;6.73;;;11.10;99.90;;;;;;5095985;28;20200;-67
2022/05/08 06:27:37;;;;;;;24.57;8.10;;;11.20;99.90;;;;;;5114534;28;20665;-70
2022/05/08 06:30:04;;;;;;;18.70;5.93;;;11.20;99.90;;;;;;5096194;28;20271;-67
2022/05/08 06:32:30;;;;;;;17.17;7.07;;;11.30;99.90;;;;;;5114435;28;20180;-70
2022/05/08 06:34:56;;;;;;;14.50;6.17;;;11.30;99.90;;;;;;5114066;28;20195;-70
2022/05/08 06:37:21;;;;;;;13.97;6.03;;;11.30;99.90;;;;;;5096047;28;20735;-70
2022/05/08 06:39:47;;;;;;;24.77;7.13;;;11.30;99.90;;;;;;5076190;28;20180;-74
2022/05/08 06:42:12;;;;;;;18.13;5.93;;;11.40;99.90;;;;;;5075754;28;20541;-70
2022/05/08 06:44:39;;;;;;;20.27;5.97;;;11.40;99.90;;;;;;5094153;28;20296;-70
2022/05/08 06:47:04;;;;;;;18.60;6.67;;;11.50;99.90;;;;;;5094243;28;20642;-70
2022/05/08 06:49:30;;;;;;;15.07;5.95;;;11.50;99.90;;;;;;5093560;28;20179;-69
2022/05/08 06:51:56;;;;;;;20.20;6.20;;;11.50;99.90;;;;;;5093627;28;20247;-70
2022/05/08 06:54:22;;;;;;;16.53;5.90;;;11.60;99.90;;;;;;5093944;28;20183;-70
2022/05/08 06:56:47;;;;;;;19.13;5.75;;;11.70;99.90;;;;;;5094326;28;20197;-67
2022/05/08 07:01:57;;;;;;;16.17;5.73;;;11.90;99.90;;;;;;5093976;28;20675;-70
2022/05/08 07:04:23;;;;;;;17.15;6.15;;;12.10;99.90;;;;;;5075283;28;20173;-70
2022/05/08 07:06:51;;;;;;;17.77;5.65;;;12.10;99.90;;;;;;5093511;28;20185;-70
2022/05/08 07:09:17;;;;;;;20.03;6.57;;;12.20;99.90;;;;;;5109614;28;20184;-70
2022/05/08 07:11:47;;;;;;;10.32;5.68;;;12.20;99.90;;;;;;5114550;28;20172;-67
2022/05/08 07:14:16;;;;;;;16.45;6.15;;;12.20;99.90;;;;;;5118327;28;20217;-68
2022/05/08 07:16:43;;;;;;;11.85;6.05;;;12.20;99.90;;;;;;5119652;28;20211;-67
2022/05/08 07:19:09;;;;;;;15.98;6.43;;;12.30;99.90;;;;;;5099518;28;20555;-68
2022/05/08 07:21:35;;;;;;;17.05;5.80;;;12.30;99.90;;;;;;5099735;28;20176;-68
2022/05/08 07:24:01;;;;;;;16.02;6.05;;;12.40;99.90;;;;;;5117984;28;20169;-69
2022/05/08 07:26:27;;;;;;;14.63;5.95;;;12.50;99.90;;;;;;5117705;28;20234;-70
2022/05/08 07:28:53;;;;;;;16.00;5.72;;;12.60;99.90;;;;;;5117789;28;20172;-69
2022/05/08 07:31:18;;;;;;;18.73;6.20;;;12.70;99.90;;;;;;5117740;28;20169;-69
2022/05/08 07:33:44;;;;;;;13.10;5.43;;;12.80;99.90;;;;;;5117310;28;20173;-69
2022/05/08 07:36:13;;;;;;;19.35;5.75;;;12.80;99.90;;;;;;5117739;28;20193;-68
2022/05/08 07:38:46;;;;;;;16.50;6.35;;;12.90;99.90;;;;;;5100040;28;20208;-69
2022/05/08 07:41:17;;;;;;;13.07;5.75;;;13.00;99.90;;;;;;5099335;28;20171;-69
2022/05/08 07:43:44;;;;;;;17.10;5.88;;;13.00;99.90;;;;;;5117841;28;20149;-69
2022/05/08 07:46:10;;;;;;;15.20;5.68;;;13.00;99.90;;;;;;5099067;28;20207;-70
2022/05/08 07:48:36;;;;;;;10.98;5.53;;;13.00;99.90;;;;;;5117726;28;20176;-69
2022/05/08 07:51:02;;;;;;;18.80;5.70;;;13.00;99.90;;;;;;5099130;28;20183;-69
2022/05/08 07:53:29;;;;;;;15.77;6.15;;;13.00;99.90;;;;;;5117378;28;20176;-69
2022/05/08 07:55:55;;;;;;;12.13;5.55;;;13.00;99.90;;;;;;5117518;28;20595;-69
2022/05/08 07:58:21;;;;;;;15.15;5.70;;;13.20;99.90;;;;;;5117377;28;20252;-69
2022/05/08 08:00:49;;;;;;;17.13;5.65;;;13.30;99.90;;;;;;5117154;28;20536;-69
2022/05/08 08:03:16;;;;;;;16.58;5.90;;;13.30;99.90;;;;;;5117072;28;20172;-69
2022/05/08 08:05:43;;;;;;;11.38;5.15;;;13.30;99.90;;;;;;5098497;28;20282;-69
2022/05/08 08:08:09;;;;;;;16.65;5.88;;;13.20;99.90;;;;;;5098771;28;20196;-69
2022/05/08 08:10:35;;;;;;;12.50;5.22;;;13.10;99.90;;;;;;5098821;28;20181;-69
2022/05/08 08:13:01;;;;;;;14.43;5.55;;;13.10;99.90;;;;;;5098465;28;20289;-69
2022/05/08 08:15:27;;;;;;;17.67;5.90;;;13.00;99.90;;;;;;5116804;28;20218;-69
2022/05/08 08:17:52;;;;;;;15.35;6.20;;;13.00;99.90;;;;;;5117270;28;20188;-70
2022/05/08 08:20:18;;;;;;;13.68;5.78;;;13.10;99.90;;;;;;5116881;28;20580;-70
2022/05/08 08:22:45;;;;;;;15.23;6.13;;;13.20;99.90;;;;;;5098735;28;20638;-68
2022/05/08 08:25:11;;;;;;;17.17;5.45;;;13.30;99.90;;;;;;5098218;28;20208;-71
2022/05/08 08:27:36;;;;;;;22.88;6.55;;;13.30;99.90;;;;;;5098501;28;20180;-69
2022/05/08 08:30:03;;;;;;;13.85;5.43;;;13.40;99.90;;;;;;5117361;28;20202;-69
2022/05/08 08:32:31;;;;;;;15.27;6.28;;;13.40;99.90;;;;;;5098634;28;20266;-69
2022/05/08 08:34:57;;;;;;;13.95;5.95;;;13.30;99.90;;;;;;5116268;28;20203;-69
2022/05/08 08:37:23;;;;;;;11.80;5.40;;;13.40;99.90;;;;;;5117182;28;20224;-69
2022/05/08 08:39:50;;;;;;;15.38;6.10;;;13.50;99.90;;;;;;5117171;28;20593;-67
2022/05/08 08:42:28;;;;;;;13.45;5.95;;;13.60;99.90;;;;;;5116514;28;20196;-67
2022/05/08 08:47:53;;;;;;;12.65;6.22;;;13.90;99.90;;;;;;5116637;28;20179;-67
2022/05/08 08:50:23;;;;;;;18.08;5.90;;;14.20;99.90;;;;;;5116233;28;20629;-67
2022/05/08 08:52:49;;;;;;;18.58;6.18;;;14.50;99.90;;;;;;5098007;28;20208;-67
2022/05/08 08:55:16;;;;;;;18.02;6.50;;;14.80;99.90;;;;;;5116235;28;20661;-67
2022/05/08 08:57:45;;;;;;;11.55;5.13;;;14.90;99.90;;;;;;5116223;28;20227;-67
2022/05/08 09:00:12;;;;;;;13.82;5.97;;;14.80;99.90;;;;;;5116918;28;20168;-68
2022/05/08 09:02:39;;;;;;;13.23;5.65;;;14.80;99.90;;;;;;5117120;28;20201;-68
2022/05/08 09:05:10;;;;;;;15.25;6.72;;;14.80;99.90;;;;;;5117052;28;20216;-68
2022/05/08 09:07:46;;;;;;;18.55;6.30;;;14.70;99.90;;;;;;5117001;28;20157;-68
2022/05/08 09:10:15;;;;;;;12.95;5.53;;;14.80;99.90;;;;;;5098059;28;20212;-67
2022/05/08 09:13:01;;;;;;;15.68;6.38;;;14.90;99.90;;;;;;5098005;28;20188;-67
2022/05/08 09:15:30;;;;;;;11.82;6.15;;;15.00;99.90;;;;;;5098254;28;20196;-67
2022/05/08 09:18:07;;;;;;;17.48;6.00;;;15.10;99.90;;;;;;5117108;28;20184;-67
2022/05/08 09:20:41;;;;;;;17.10;6.18;;;15.30;99.90;;;;;;5115889;28;20164;-67
2022/05/08 09:23:11;;;;;;;16.00;6.28;;;15.60;99.90;;;;;;5116332;28;20149;-67
2022/05/08 09:26:13;;;;;;;19.60;5.97;;;15.60;99.90;;;;;;5116507;28;20270;-67
2022/05/08 09:28:41;;;;;;;14.75;5.60;;;15.80;99.90;;;;;;5013589;28;20176;-67
2022/05/08 09:31:18;;;;;;;16.90;6.32;;;16.00;99.90;;;;;;5082365;28;20181;-67
2022/05/08 09:33:51;;;;;;;10.57;5.80;;;16.20;99.90;;;;;;5116084;28;20160;-67
2022/05/08 09:36:24;;;;;;;15.02;5.70;;;16.30;99.90;;;;;;5114601;28;20188;-67
2022/05/08 09:38:51;;;;;;;16.38;6.05;;;16.20;99.90;;;;;;5115666;28;20304;-67
2022/05/08 09:41:18;;;;;;;12.15;5.40;;;16.50;99.90;;;;;;5097453;28;20180;-67
2022/05/08 09:43:44;;;;;;;14.40;6.18;;;16.60;99.90;;;;;;5116911;28;20199;-67
2022/05/08 09:46:10;;;;;;;17.65;5.75;;;16.60;99.90;;;;;;5118464;28;20585;-72
2022/05/08 09:48:37;;;;;;;10.65;5.75;;;16.60;99.90;;;;;;5117609;28;20160;-67
2022/05/08 09:51:08;;;;;;;12.52;5.43;;;16.60;99.90;;;;;;5116515;28;20176;-66
2022/05/08 09:53:38;;;;;;;12.85;5.63;;;16.50;99.90;;;;;;5115951;28;20157;-67
2022/05/08 09:56:07;;;;;;;15.30;5.82;;;16.60;99.90;;;;;;5096976;28;20287;-67
2022/05/08 09:58:33;;;;;;;16.60;6.10;;;16.50;99.90;;;;;;5114901;28;20204;-69
2022/05/08 10:00:59;;;;;;;12.00;4.80;;;16.50;99.90;;;;;;5115335;28;20193;-69
2022/05/08 10:03:26;;;;;;;12.82;5.68;;;16.50;99.90;;;;;;5096713;28;20586;-69
2022/05/08 10:05:53;;;;;;;14.55;6.20;;;16.50;99.90;;;;;;5096282;28;20661;-69
2022/05/08 10:08:22;;;;;;;19.75;5.68;;;16.50;99.90;;;;;;5115033;28;20191;-69
2022/05/08 10:13:53;;;;;;;10.90;5.22;;;16.50;99.90;;;;;;5114672;28;20187;-69
2022/05/08 10:16:51;;;;;;;14.45;5.55;;;16.70;99.90;;;;;;5114991;28;20204;-69
2022/05/08 10:19:19;;;;;;;14.07;5.13;;;16.90;99.90;;;;;;5096130;28;20184;-69
2022/05/08 10:21:57;;;;;;;15.88;6.30;;;17.00;99.90;;;;;;5114642;28;20255;-69
2022/05/08 10:24:51;;;;;;;12.50;5.78;;;16.80;99.90;;;;;;5096175;28;20244;-69
2022/05/08 10:27:27;;;;;;;16.80;5.40;;;17.20;99.90;;;;;;5114764;28;20148;-69
2022/05/08 10:29:53;;;;;;;15.45;5.88;;;17.50;99.90;;;;;;5114470;28;20168;-69
2022/05/08 10:32:28;;;;;;;11.85;5.57;;;17.30;99.90;;;;;;5096137;28;20675;-69
2022/05/08 10:35:13;;;;;;;14.02;5.60;;;17.50;99.90;;;;;;5113891;28;20703;-69
2022/05/08 10:37:52;;;;;;;12.18;5.75;;;17.40;99.90;;;;;;5114236;28;20567;-69
2022/05/08 10:40:24;;;;;;;12.43;5.90;;;17.30;99.90;;;;;;5114225;28;20175;-69
2022/05/08 10:42:58;;;;;;;18.67;5.93;;;17.30;99.90;;;;;;5096010;28;20659;-69
2022/05/08 10:45:30;;;;;;;14.13;5.72;;;17.30;99.90;;;;;;5113985;28;20550;-69
2022/05/08 10:48:03;;;;;;;12.68;5.40;;;17.10;99.90;;;;;;5095332;28;20188;-70
2022/05/08 10:50:30;;;;;;;12.88;6.03;;;17.10;99.90;;;;;;5114016;28;20156;-68
2022/05/08 10:52:57;;;;;;;10.57;5.38;;;17.50;99.90;;;;;;5114245;28;20225;-68
2022/05/08 10:55:23;;;;;;;10.27;5.30;;;17.70;99.90;;;;;;5113852;28;20743;-68
2022/05/08 10:57:50;;;;;;;12.27;5.15;;;17.80;99.90;;;;;;5114283;28;20200;-72
2022/05/08 11:00:18;;;;;;;10.50;5.07;;;18.10;99.90;;;;;;5114011;28;20168;-68
2022/05/08 11:02:52;;;;;;;7.93;5.05;;;18.30;99.90;;;;;;5095662;28;20271;-69
2022/05/08 11:05:22;;;;;;;14.07;5.00;;;18.30;99.90;;;;;;5114027;28;20259;-74
2022/05/08 11:07:52;;;;;;;10.18;4.28;;;18.10;99.90;;;;;;5114172;28;20187;-74
2022/05/08 11:10:25;;;;;;;9.00;4.75;;;18.30;99.90;;;;;;5095722;28;20181;-72
2022/05/08 11:13:04;;;;;;;14.25;5.05;;;18.60;99.90;;;;;;5113944;28;20211;-73
2022/05/08 11:15:35;;;;;;;6.22;4.10;;;18.50;99.90;;;;;;5114182;28;20231;-73
2022/05/08 11:18:09;;;;;;;8.63;4.25;;;18.40;99.90;;;;;;5095686;28;20226;-73
2022/05/08 11:20:43;;;;;;;9.18;4.88;;;18.40;99.90;;;;;;5113586;28;20171;-73
2022/05/08 11:23:13;;;;;;;16.23;5.57;;;18.00;99.90;;;;;;5114166;28;20178;-74
2022/05/08 11:25:39;;;;;;;9.77;4.95;;;17.70;99.90;;;;;;5095634;28;20189;-73
2022/05/08 11:28:05;;;;;;;11.75;4.57;;;18.00;99.90;;;;;;5114814;28;20160;-73
2022/05/08 11:30:33;;;;;;;9.95;4.38;;;18.40;99.90;;;;;;5102048;28;20176;-71
2022/05/08 11:36:04;;;;;;;12.57;4.30;;;19.20;99.90;;;;;;5114486;28;20284;-72
2022/05/08 11:38:53;;;;;;;11.70;5.10;;;19.50;99.90;;;;;;5113850;28;20282;-72
2022/05/08 11:41:20;;;;;;;11.50;4.60;;;19.50;99.90;;;;;;5095805;28;20179;-72
2022/05/08 11:43:50;;;;;;;8.73;4.40;;;19.60;99.90;;;;;;5113922;28;20229;-72
2022/05/08 11:46:18;;;;;;;8.93;4.50;;;19.80;99.90;;;;;;5114250;28;20185;-72
2022/05/08 11:48:49;;;;;;;11.52;4.47;;;19.90;99.90;;;;;;5113930;28;20213;-74
2022/05/08 11:51:18;;;;;;;11.30;4.60;;;20.10;99.90;;;;;;5095264;28;20198;-74
2022/05/08 11:53:51;;;;;;;9.45;4.53;;;20.20;99.90;;;;;;5095418;28;20173;-73
2022/05/08 11:56:27;;;;;;;10.25;4.53;;;20.00;99.90;;;;;;5114298;28;20325;-75
2022/05/08 11:58:58;;;;;;;10.05;4.85;;;20.10;99.90;;;;;;5096869;28;20208;-74
2022/05/08 12:01:32;;;;;;;11.40;4.93;;;20.30;99.90;;;;;;5099910;28;20173;-73
2022/05/08 12:04:22;;;;;;;9.35;4.47;;;20.60;99.90;;;;;;5118273;28;20194;-73
2022/05/08 12:07:01;;;;;;;9.75;4.38;;;20.80;99.90;;;;;;5117461;28;20211;-73
2022/05/08 12:09:51;;;;;;;9.70;3.70;;;20.80;99.90;;;;;;5117705;28;20172;-73
2022/05/08 12:12:31;;;;;;;6.50;3.78;;;20.90;99.90;;;;;;5117744;28;20161;-73
2022/05/08 12:15:02;;;;;;;8.35;3.58;;;21.20;99.90;;;;;;5099760;28;20246;-73
2022/05/08 12:17:49;;;;;;;6.90;3.63;;;21.50;99.90;;;;;;5117065;28;20196;-68
2022/05/08 12:20:32;;;;;;;7.20;3.30;;;21.50;99.90;;;;;;5115835;28;20242;-68
2022/05/08 12:23:06;;;;;;;11.35;4.03;;;21.80;99.90;;;;;;5117782;28;20240;-69
2022/05/08 12:25:33;;;;;;;9.95;3.63;;;22.10;99.90;;;;;;5117375;28;20245;-70
2022/05/08 12:27:59;;;;;;;7.25;3.42;;;22.40;99.90;;;;;;5117700;28;20168;-69
2022/05/08 12:30:25;;;;;;;8.63;3.40;;;22.30;99.90;;;;;;5118392;28;20682;-69
2022/05/08 12:32:51;;;;;;;7.65;3.50;;;22.00;99.90;;;;;;5117759;28;20203;-69
2022/05/08 12:35:18;;;;;;;7.45;3.45;;;22.30;99.90;;;;;;5117671;28;20196;-69
2022/05/08 12:37:47;;;;;;;7.85;4.10;;;22.20;99.90;;;;;;5116918;28;20223;-71
2022/05/08 12:40:14;;;;;;;7.00;3.53;;;22.10;99.90;;;;;;5116825;28;20149;-69
2022/05/08 12:42:41;;;;;;;7.22;3.22;;;22.50;99.90;;;;;;5116419;28;20667;-69
2022/05/08 12:45:07;;;;;;;9.60;3.40;;;22.90;99.90;;;;;;5117817;28;20602;-71
2022/05/08 12:47:33;;;;;;;9.80;3.55;;;23.10;99.90;;;;;;5115761;28;20665;-70
2022/05/08 12:49:59;;;;;;;10.73;3.78;;;23.00;99.90;;;;;;5116167;28;20200;-71
2022/05/08 12:52:25;;;;;;;7.05;3.50;;;23.30;99.90;;;;;;5116103;28;20180;-71
2022/05/08 12:54:51;;;;;;;8.88;3.40;;;23.30;99.90;;;;;;5116138;28;20269;-71
2022/05/08 13:00:03;;;;;;;9.38;4.00;;;23.70;99.90;;;;;;5116601;28;20184;-71
2022/05/08 13:02:28;;;;;;;9.93;3.70;;;23.80;99.90;;;;;;5116156;28;20172;-72
2022/05/08 13:04:55;;;;;;;9.38;3.60;;;24.20;99.90;;;;;;5115717;28;20195;-71